sensor_id;sensor_type;location;lat;lon;timestamp;P1;durP1;ratioP1;P2;durP2;ratioP2
48789;SDS011;41718;51.980;5.734;2022-12-11T00:02:47;100.50;;;34.55;;
48789;SDS011;41718;51.980;5.734;2022-12-11T00:07:49;110.57;;;36.28;;
48789;SDS011;41718;51.980;5.734;2022-12-11T00:12:51;100.70;;;33.58;;
48789;SDS011;41718;51.980;5.734;2022-12-11T00:17:52;107.32;;;34.38;;
48789;SDS011;41718;51.980;5.734;2022-12-11T00:22:54;97.03;;;33.10;;
48789;SDS011;41718;51.980;5.734;2022-12-11T00:27:56;91.65;;;30.45;;
48789;SDS011;41718;51.980;5.734;2022-12-11T00:32:57;99.22;;;33.38;;
48789;SDS011;41718;51.980;5.734;2022-12-11T00:38:00;89.18;;;31.25;;
48789;SDS011;41718;51.980;5.734;2022-12-11T00:43:02;92.28;;;34.10;;
48789;SDS011;41718;51.980;5.734;2022-12-11T00:48:04;103.95;;;35.45;;
48789;SDS011;41718;51.980;5.734;2022-12-11T00:53:06;100.35;;;32.08;;
48789;SDS011;41718;51.980;5.734;2022-12-11T00:58:08;88.10;;;31.80;;
48789;SDS011;41718;51.980;5.734;2022-12-11T01:03:12;101.00;;;35.92;;
48789;SDS011;41718;51.980;5.734;2022-12-11T01:08:15;98.32;;;34.10;;
48789;SDS011;41718;51.980;5.734;2022-12-11T01:13:16;86.68;;;31.90;;
48789;SDS011;41718;51.980;5.734;2022-12-11T01:18:18;90.93;;;31.13;;
48789;SDS011;41718;51.980;5.734;2022-12-11T01:23:19;96.40;;;30.42;;
48789;SDS011;41718;51.980;5.734;2022-12-11T01:28:20;103.95;;;31.67;;
48789;SDS011;41718;51.980;5.734;2022-12-11T01:33:22;113.13;;;34.20;;
48789;SDS011;41718;51.980;5.734;2022-12-11T01:38:23;101.68;;;34.40;;
48789;SDS011;41718;51.980;5.734;2022-12-11T01:43:25;102.07;;;33.30;;
48789;SDS011;41718;51.980;5.734;2022-12-11T01:48:27;104.05;;;34.13;;
48789;SDS011;41718;51.980;5.734;2022-12-11T01:53:36;93.28;;;34.92;;
48789;SDS011;41718;51.980;5.734;2022-12-11T01:58:48;110.68;;;31.50;;
48789;SDS011;41718;51.980;5.734;2022-12-11T02:03:52;117.20;;;37.50;;
48789;SDS011;41718;51.980;5.734;2022-12-11T02:08:55;145.88;;;41.58;;
48789;SDS011;41718;51.980;5.734;2022-12-11T02:14:09;127.88;;;40.33;;
48789;SDS011;41718;51.980;5.734;2022-12-11T02:30:16;138.30;;;39.85;;
48789;SDS011;41718;51.980;5.734;2022-12-11T02:35:18;169.88;;;43.03;;
48789;SDS011;41718;51.980;5.734;2022-12-11T02:40:25;156.40;;;44.15;;
48789;SDS011;41718;51.980;5.734;2022-12-11T02:45:30;161.35;;;45.80;;
48789;SDS011;41718;51.980;5.734;2022-12-11T02:50:34;122.90;;;38.25;;
48789;SDS011;41718;51.980;5.734;2022-12-11T02:55:39;111.10;;;35.22;;
48789;SDS011;41718;51.980;5.734;2022-12-11T03:00:43;132.50;;;42.55;;
48789;SDS011;41718;51.980;5.734;2022-12-11T03:05:45;150.55;;;46.25;;
48789;SDS011;41718;51.980;5.734;2022-12-11T03:10:47;109.70;;;41.10;;
48789;SDS011;41718;51.980;5.734;2022-12-11T03:15:58;129.75;;;39.60;;
48789;SDS011;41718;51.980;5.734;2022-12-11T03:21:11;120.60;;;38.60;;
48789;SDS011;41718;51.980;5.734;2022-12-11T03:26:19;119.00;;;40.63;;
48789;SDS011;41718;51.980;5.734;2022-12-11T03:31:38;130.73;;;39.97;;
48789;SDS011;41718;51.980;5.734;2022-12-11T03:36:43;125.18;;;43.53;;
48789;SDS011;41718;51.980;5.734;2022-12-11T03:41:47;111.43;;;37.35;;
48789;SDS011;41718;51.980;5.734;2022-12-11T03:46:51;114.05;;;36.35;;
48789;SDS011;41718;51.980;5.734;2022-12-11T03:51:55;109.43;;;36.10;;
48789;SDS011;41718;51.980;5.734;2022-12-11T03:56:58;122.55;;;39.38;;
48789;SDS011;41718;51.980;5.734;2022-12-11T04:02:05;109.05;;;35.60;;
48789;SDS011;41718;51.980;5.734;2022-12-11T04:07:11;97.43;;;33.95;;
48789;SDS011;41718;51.980;5.734;2022-12-11T04:12:12;104.88;;;43.38;;
48789;SDS011;41718;51.980;5.734;2022-12-11T04:17:14;116.45;;;38.85;;
48789;SDS011;41718;51.980;5.734;2022-12-11T04:22:36;93.55;;;34.33;;
48789;SDS011;41718;51.980;5.734;2022-12-11T04:27:56;70.22;;;25.38;;
48789;SDS011;41718;51.980;5.734;2022-12-11T04:32:57;61.95;;;26.80;;
48789;SDS011;41718;51.980;5.734;2022-12-11T04:37:59;35.40;;;15.23;;
48789;SDS011;41718;51.980;5.734;2022-12-11T04:43:01;52.28;;;21.52;;
48789;SDS011;41718;51.980;5.734;2022-12-11T04:48:02;53.63;;;20.00;;
48789;SDS011;41718;51.980;5.734;2022-12-11T04:53:04;55.78;;;22.88;;
48789;SDS011;41718;51.980;5.734;2022-12-11T04:58:05;45.25;;;20.63;;
48789;SDS011;41718;51.980;5.734;2022-12-11T05:03:07;59.50;;;23.60;;
48789;SDS011;41718;51.980;5.734;2022-12-11T05:08:09;57.20;;;23.13;;
48789;SDS011;41718;51.980;5.734;2022-12-11T05:13:10;49.92;;;21.92;;
48789;SDS011;41718;51.980;5.734;2022-12-11T05:18:12;50.30;;;22.02;;
48789;SDS011;41718;51.980;5.734;2022-12-11T05:23:13;36.50;;;17.25;;
48789;SDS011;41718;51.980;5.734;2022-12-11T05:28:15;50.42;;;19.55;;
48789;SDS011;41718;51.980;5.734;2022-12-11T05:33:16;37.67;;;18.83;;
48789;SDS011;41718;51.980;5.734;2022-12-11T05:38:18;50.38;;;22.17;;
48789;SDS011;41718;51.980;5.734;2022-12-11T05:43:20;68.32;;;25.65;;
48789;SDS011;41718;51.980;5.734;2022-12-11T05:48:21;60.10;;;25.55;;
48789;SDS011;41718;51.980;5.734;2022-12-11T05:53:23;62.03;;;26.83;;
48789;SDS011;41718;51.980;5.734;2022-12-11T05:58:24;56.00;;;24.52;;
48789;SDS011;41718;51.980;5.734;2022-12-11T06:03:26;53.88;;;24.23;;
48789;SDS011;41718;51.980;5.734;2022-12-11T06:08:28;52.22;;;25.00;;
48789;SDS011;41718;51.980;5.734;2022-12-11T06:13:29;56.40;;;24.27;;
48789;SDS011;41718;51.980;5.734;2022-12-11T06:18:34;52.03;;;21.83;;
48789;SDS011;41718;51.980;5.734;2022-12-11T06:23:37;39.72;;;18.90;;
48789;SDS011;41718;51.980;5.734;2022-12-11T06:28:38;37.75;;;19.88;;
48789;SDS011;41718;51.980;5.734;2022-12-11T06:33:40;41.45;;;20.85;;
48789;SDS011;41718;51.980;5.734;2022-12-11T06:38:41;47.30;;;21.38;;
48789;SDS011;41718;51.980;5.734;2022-12-11T06:43:44;40.70;;;23.17;;
48789;SDS011;41718;51.980;5.734;2022-12-11T06:48:46;41.80;;;20.92;;
48789;SDS011;41718;51.980;5.734;2022-12-11T06:53:52;38.17;;;21.13;;
48789;SDS011;41718;51.980;5.734;2022-12-11T07:03:57;27.17;;;15.07;;
48789;SDS011;41718;51.980;5.734;2022-12-11T07:09:02;30.48;;;16.58;;
48789;SDS011;41718;51.980;5.734;2022-12-11T07:14:04;31.65;;;16.92;;
48789;SDS011;41718;51.980;5.734;2022-12-11T07:19:07;31.20;;;16.13;;
48789;SDS011;41718;51.980;5.734;2022-12-11T07:24:08;29.67;;;17.25;;
48789;SDS011;41718;51.980;5.734;2022-12-11T07:29:10;37.53;;;17.85;;
48789;SDS011;41718;51.980;5.734;2022-12-11T07:34:12;31.38;;;17.38;;
48789;SDS011;41718;51.980;5.734;2022-12-11T07:39:14;26.95;;;14.07;;
48789;SDS011;41718;51.980;5.734;2022-12-11T07:44:18;28.75;;;14.70;;
48789;SDS011;41718;51.980;5.734;2022-12-11T07:49:20;30.75;;;16.08;;
48789;SDS011;41718;51.980;5.734;2022-12-11T07:54:21;33.47;;;16.50;;
48789;SDS011;41718;51.980;5.734;2022-12-11T07:59:23;21.02;;;12.20;;
48789;SDS011;41718;51.980;5.734;2022-12-11T08:04:28;27.90;;;12.90;;
48789;SDS011;41718;51.980;5.734;2022-12-11T08:09:30;22.90;;;12.57;;
48789;SDS011;41718;51.980;5.734;2022-12-11T08:14:31;26.00;;;12.32;;
48789;SDS011;41718;51.980;5.734;2022-12-11T08:19:32;20.70;;;9.85;;
48789;SDS011;41718;51.980;5.734;2022-12-11T08:24:35;28.23;;;12.70;;
48789;SDS011;41718;51.980;5.734;2022-12-11T08:29:37;23.27;;;12.18;;
48789;SDS011;41718;51.980;5.734;2022-12-11T08:34:39;20.17;;;10.70;;
48789;SDS011;41718;51.980;5.734;2022-12-11T08:39:40;23.77;;;13.18;;
48789;SDS011;41718;51.980;5.734;2022-12-11T08:44:43;25.50;;;12.27;;
48789;SDS011;41718;51.980;5.734;2022-12-11T08:49:45;26.88;;;12.57;;
48789;SDS011;41718;51.980;5.734;2022-12-11T08:54:46;26.90;;;14.68;;
48789;SDS011;41718;51.980;5.734;2022-12-11T08:59:48;24.67;;;14.25;;
48789;SDS011;41718;51.980;5.734;2022-12-11T09:04:50;22.60;;;12.68;;
48789;SDS011;41718;51.980;5.734;2022-12-11T09:09:55;26.40;;;15.95;;
48789;SDS011;41718;51.980;5.734;2022-12-11T09:14:56;36.72;;;17.35;;
48789;SDS011;41718;51.980;5.734;2022-12-11T09:19:58;29.65;;;14.20;;
48789;SDS011;41718;51.980;5.734;2022-12-11T09:24:59;30.52;;;14.13;;
48789;SDS011;41718;51.980;5.734;2022-12-11T09:30:02;26.70;;;14.05;;
48789;SDS011;41718;51.980;5.734;2022-12-11T09:35:08;35.03;;;18.08;;
48789;SDS011;41718;51.980;5.734;2022-12-11T09:40:15;29.25;;;14.02;;
48789;SDS011;41718;51.980;5.734;2022-12-11T09:45:17;28.60;;;14.43;;
48789;SDS011;41718;51.980;5.734;2022-12-11T09:50:23;28.17;;;14.25;;
48789;SDS011;41718;51.980;5.734;2022-12-11T09:55:28;27.70;;;14.38;;
48789;SDS011;41718;51.980;5.734;2022-12-11T10:01:02;24.52;;;14.40;;
48789;SDS011;41718;51.980;5.734;2022-12-11T10:06:17;25.70;;;14.32;;
48789;SDS011;41718;51.980;5.734;2022-12-11T10:11:51;28.02;;;16.17;;
48789;SDS011;41718;51.980;5.734;2022-12-11T10:36:09;25.60;;;13.05;;
48789;SDS011;41718;51.980;5.734;2022-12-11T10:41:20;26.67;;;15.30;;
48789;SDS011;41718;51.980;5.734;2022-12-11T10:46:25;28.52;;;14.25;;
48789;SDS011;41718;51.980;5.734;2022-12-11T10:56:31;28.02;;;14.43;;
48789;SDS011;41718;51.980;5.734;2022-12-11T11:01:34;32.00;;;16.80;;
48789;SDS011;41718;51.980;5.734;2022-12-11T11:06:36;25.73;;;14.88;;
48789;SDS011;41718;51.980;5.734;2022-12-11T11:11:37;28.75;;;15.00;;
48789;SDS011;41718;51.980;5.734;2022-12-11T11:16:42;27.50;;;15.93;;
48789;SDS011;41718;51.980;5.734;2022-12-11T11:21:47;33.58;;;17.45;;
48789;SDS011;41718;51.980;5.734;2022-12-11T11:26:54;33.35;;;17.42;;
48789;SDS011;41718;51.980;5.734;2022-12-11T11:37:32;28.65;;;16.58;;
48789;SDS011;41718;51.980;5.734;2022-12-11T11:42:37;31.58;;;15.82;;
48789;SDS011;41718;51.980;5.734;2022-12-11T11:47:57;36.05;;;16.52;;
48789;SDS011;41718;51.980;5.734;2022-12-11T11:53:23;27.00;;;14.75;;
48789;SDS011;41718;51.980;5.734;2022-12-11T11:58:36;27.85;;;16.45;;
48789;SDS011;41718;51.980;5.734;2022-12-11T12:03:45;32.33;;;15.18;;
48789;SDS011;41718;51.980;5.734;2022-12-11T12:20:05;30.85;;;16.30;;
48789;SDS011;41718;51.980;5.734;2022-12-11T12:47:04;27.65;;;14.68;;
48789;SDS011;41718;51.980;5.734;2022-12-11T12:52:16;24.45;;;13.90;;
48789;SDS011;41718;51.980;5.734;2022-12-11T12:57:24;28.05;;;16.13;;
48789;SDS011;41718;51.980;5.734;2022-12-11T13:02:26;29.40;;;15.88;;
48789;SDS011;41718;51.980;5.734;2022-12-11T13:07:30;30.50;;;16.00;;
48789;SDS011;41718;51.980;5.734;2022-12-11T13:12:39;29.88;;;15.68;;
48789;SDS011;41718;51.980;5.734;2022-12-11T13:17:46;30.83;;;15.02;;
48789;SDS011;41718;51.980;5.734;2022-12-11T13:33:42;31.77;;;15.80;;
48789;SDS011;41718;51.980;5.734;2022-12-11T13:38:48;36.38;;;18.88;;
48789;SDS011;41718;51.980;5.734;2022-12-11T13:43:54;32.23;;;15.43;;
48789;SDS011;41718;51.980;5.734;2022-12-11T13:48:58;32.28;;;16.75;;
48789;SDS011;41718;51.980;5.734;2022-12-11T13:54:13;27.95;;;14.10;;
48789;SDS011;41718;51.980;5.734;2022-12-11T13:59:25;31.40;;;15.57;;
48789;SDS011;41718;51.980;5.734;2022-12-11T14:04:29;26.30;;;15.40;;
48789;SDS011;41718;51.980;5.734;2022-12-11T14:09:33;33.22;;;14.63;;
48789;SDS011;41718;51.980;5.734;2022-12-11T14:14:44;29.48;;;14.45;;
48789;SDS011;41718;51.980;5.734;2022-12-11T14:19:50;37.40;;;18.23;;
48789;SDS011;41718;51.980;5.734;2022-12-11T14:24:53;39.35;;;17.20;;
48789;SDS011;41718;51.980;5.734;2022-12-11T14:29:56;25.73;;;14.95;;
48789;SDS011;41718;51.980;5.734;2022-12-11T14:35:03;28.38;;;15.93;;
48789;SDS011;41718;51.980;5.734;2022-12-11T14:40:13;31.35;;;15.27;;
48789;SDS011;41718;51.980;5.734;2022-12-11T14:45:19;27.88;;;15.35;;
48789;SDS011;41718;51.980;5.734;2022-12-11T14:55:40;35.67;;;18.92;;
48789;SDS011;41718;51.980;5.734;2022-12-11T15:00:42;38.80;;;19.95;;
48789;SDS011;41718;51.980;5.734;2022-12-11T15:05:56;25.13;;;14.15;;
48789;SDS011;41718;51.980;5.734;2022-12-11T15:11:00;31.85;;;16.70;;
48789;SDS011;41718;51.980;5.734;2022-12-11T15:16:08;26.85;;;14.55;;
48789;SDS011;41718;51.980;5.734;2022-12-11T15:21:14;24.48;;;13.70;;
48789;SDS011;41718;51.980;5.734;2022-12-11T15:26:17;28.30;;;15.77;;
48789;SDS011;41718;51.980;5.734;2022-12-11T15:31:26;29.35;;;14.63;;
48789;SDS011;41718;51.980;5.734;2022-12-11T15:41:34;29.98;;;17.08;;
48789;SDS011;41718;51.980;5.734;2022-12-11T15:46:39;32.13;;;17.75;;
48789;SDS011;41718;51.980;5.734;2022-12-11T15:51:41;36.75;;;17.75;;
48789;SDS011;41718;51.980;5.734;2022-12-11T15:56:43;31.00;;;17.90;;
48789;SDS011;41718;51.980;5.734;2022-12-11T16:01:46;31.40;;;17.08;;
48789;SDS011;41718;51.980;5.734;2022-12-11T16:06:48;33.50;;;17.80;;
48789;SDS011;41718;51.980;5.734;2022-12-11T16:11:50;33.80;;;17.55;;
48789;SDS011;41718;51.980;5.734;2022-12-11T16:16:52;41.22;;;24.98;;
48789;SDS011;41718;51.980;5.734;2022-12-11T16:21:53;34.30;;;19.70;;
48789;SDS011;41718;51.980;5.734;2022-12-11T16:26:57;35.65;;;19.85;;
48789;SDS011;41718;51.980;5.734;2022-12-11T16:31:59;31.20;;;21.67;;
48789;SDS011;41718;51.980;5.734;2022-12-11T16:37:01;45.60;;;26.63;;
48789;SDS011;41718;51.980;5.734;2022-12-11T16:42:04;36.78;;;19.40;;
48789;SDS011;41718;51.980;5.734;2022-12-11T16:47:12;38.88;;;21.95;;
48789;SDS011;41718;51.980;5.734;2022-12-11T16:52:18;31.65;;;16.63;;
48789;SDS011;41718;51.980;5.734;2022-12-11T16:57:23;34.10;;;18.15;;
48789;SDS011;41718;51.980;5.734;2022-12-11T17:02:24;39.17;;;22.20;;
48789;SDS011;41718;51.980;5.734;2022-12-11T17:07:26;29.98;;;18.45;;
48789;SDS011;41718;51.980;5.734;2022-12-11T17:12:28;31.13;;;17.38;;
48789;SDS011;41718;51.980;5.734;2022-12-11T17:17:30;30.15;;;18.17;;
48789;SDS011;41718;51.980;5.734;2022-12-11T17:22:31;34.15;;;17.98;;
48789;SDS011;41718;51.980;5.734;2022-12-11T17:27:33;28.38;;;16.17;;
48789;SDS011;41718;51.980;5.734;2022-12-11T17:32:34;37.55;;;20.20;;
48789;SDS011;41718;51.980;5.734;2022-12-11T17:37:35;33.72;;;18.95;;
48789;SDS011;41718;51.980;5.734;2022-12-11T17:42:37;27.83;;;15.93;;
48789;SDS011;41718;51.980;5.734;2022-12-11T17:47:40;28.88;;;16.02;;
48789;SDS011;41718;51.980;5.734;2022-12-11T17:52:41;27.55;;;15.38;;
48789;SDS011;41718;51.980;5.734;2022-12-11T17:57:44;32.25;;;14.77;;
48789;SDS011;41718;51.980;5.734;2022-12-11T18:02:46;27.02;;;14.75;;
48789;SDS011;41718;51.980;5.734;2022-12-11T18:07:47;29.67;;;14.35;;
48789;SDS011;41718;51.980;5.734;2022-12-11T18:12:57;26.63;;;12.38;;
48789;SDS011;41718;51.980;5.734;2022-12-11T18:17:59;27.15;;;14.32;;
48789;SDS011;41718;51.980;5.734;2022-12-11T18:23:01;27.08;;;16.13;;
48789;SDS011;41718;51.980;5.734;2022-12-11T18:28:03;32.15;;;17.80;;
48789;SDS011;41718;51.980;5.734;2022-12-11T18:33:05;25.73;;;13.63;;
48789;SDS011;41718;51.980;5.734;2022-12-11T18:38:08;25.83;;;12.75;;
48789;SDS011;41718;51.980;5.734;2022-12-11T18:43:10;24.75;;;13.73;;
48789;SDS011;41718;51.980;5.734;2022-12-11T18:48:12;25.85;;;13.80;;
48789;SDS011;41718;51.980;5.734;2022-12-11T18:53:15;25.65;;;13.32;;
48789;SDS011;41718;51.980;5.734;2022-12-11T18:58:19;21.05;;;12.15;;
48789;SDS011;41718;51.980;5.734;2022-12-11T19:03:20;23.40;;;12.88;;
48789;SDS011;41718;51.980;5.734;2022-12-11T19:08:22;25.05;;;12.85;;
48789;SDS011;41718;51.980;5.734;2022-12-11T19:13:23;22.73;;;13.57;;
48789;SDS011;41718;51.980;5.734;2022-12-11T19:18:25;25.20;;;14.85;;
48789;SDS011;41718;51.980;5.734;2022-12-11T19:23:27;23.27;;;14.27;;
48789;SDS011;41718;51.980;5.734;2022-12-11T19:28:28;25.42;;;15.27;;
48789;SDS011;41718;51.980;5.734;2022-12-11T19:33:30;25.10;;;14.48;;
48789;SDS011;41718;51.980;5.734;2022-12-11T19:38:32;24.67;;;14.40;;
48789;SDS011;41718;51.980;5.734;2022-12-11T19:43:34;29.10;;;16.45;;
48789;SDS011;41718;51.980;5.734;2022-12-11T19:48:38;22.17;;;13.30;;
48789;SDS011;41718;51.980;5.734;2022-12-11T19:53:42;24.25;;;14.10;;
48789;SDS011;41718;51.980;5.734;2022-12-11T19:58:46;25.05;;;13.00;;
48789;SDS011;41718;51.980;5.734;2022-12-11T20:03:48;20.80;;;14.02;;
48789;SDS011;41718;51.980;5.734;2022-12-11T20:08:49;31.80;;;15.70;;
48789;SDS011;41718;51.980;5.734;2022-12-11T20:13:51;21.35;;;13.48;;
48789;SDS011;41718;51.980;5.734;2022-12-11T20:18:55;28.17;;;14.57;;
48789;SDS011;41718;51.980;5.734;2022-12-11T20:23:58;22.88;;;13.05;;
48789;SDS011;41718;51.980;5.734;2022-12-11T20:29:00;23.02;;;13.48;;
48789;SDS011;41718;51.980;5.734;2022-12-11T20:34:05;23.35;;;13.10;;
48789;SDS011;41718;51.980;5.734;2022-12-11T20:39:08;25.40;;;13.73;;
48789;SDS011;41718;51.980;5.734;2022-12-11T20:44:10;21.30;;;12.48;;
48789;SDS011;41718;51.980;5.734;2022-12-11T20:49:13;21.70;;;12.27;;
48789;SDS011;41718;51.980;5.734;2022-12-11T20:54:14;29.52;;;14.73;;
48789;SDS011;41718;51.980;5.734;2022-12-11T20:59:16;24.98;;;14.45;;
48789;SDS011;41718;51.980;5.734;2022-12-11T21:04:18;35.05;;;19.15;;
48789;SDS011;41718;51.980;5.734;2022-12-11T21:09:21;33.45;;;17.90;;
48789;SDS011;41718;51.980;5.734;2022-12-11T21:14:26;26.50;;;15.88;;
48789;SDS011;41718;51.980;5.734;2022-12-11T21:19:28;26.23;;;16.13;;
48789;SDS011;41718;51.980;5.734;2022-12-11T21:24:30;26.95;;;16.67;;
48789;SDS011;41718;51.980;5.734;2022-12-11T21:29:31;31.77;;;18.98;;
48789;SDS011;41718;51.980;5.734;2022-12-11T21:34:33;26.40;;;15.98;;
48789;SDS011;41718;51.980;5.734;2022-12-11T21:39:34;29.27;;;15.90;;
48789;SDS011;41718;51.980;5.734;2022-12-11T21:44:39;23.42;;;14.23;;
48789;SDS011;41718;51.980;5.734;2022-12-11T21:50:01;28.40;;;13.80;;
48789;SDS011;41718;51.980;5.734;2022-12-11T21:55:02;24.42;;;14.05;;
48789;SDS011;41718;51.980;5.734;2022-12-11T22:00:05;29.98;;;15.80;;
48789;SDS011;41718;51.980;5.734;2022-12-11T22:05:07;26.55;;;15.02;;
48789;SDS011;41718;51.980;5.734;2022-12-11T22:10:09;22.50;;;12.88;;
48789;SDS011;41718;51.980;5.734;2022-12-11T22:15:11;22.65;;;13.32;;
48789;SDS011;41718;51.980;5.734;2022-12-11T22:20:13;23.25;;;13.43;;
48789;SDS011;41718;51.980;5.734;2022-12-11T22:25:14;27.98;;;14.05;;
48789;SDS011;41718;51.980;5.734;2022-12-11T22:30:16;26.20;;;15.30;;
48789;SDS011;41718;51.980;5.734;2022-12-11T22:35:18;28.88;;;15.32;;
48789;SDS011;41718;51.980;5.734;2022-12-11T22:40:25;26.17;;;15.48;;
48789;SDS011;41718;51.980;5.734;2022-12-11T22:45:27;29.17;;;15.57;;
48789;SDS011;41718;51.980;5.734;2022-12-11T22:50:29;28.10;;;15.38;;
48789;SDS011;41718;51.980;5.734;2022-12-11T22:55:31;31.15;;;16.20;;
48789;SDS011;41718;51.980;5.734;2022-12-11T23:00:32;29.02;;;16.10;;
48789;SDS011;41718;51.980;5.734;2022-12-11T23:05:34;29.60;;;16.23;;
48789;SDS011;41718;51.980;5.734;2022-12-11T23:10:37;28.45;;;14.65;;
48789;SDS011;41718;51.980;5.734;2022-12-11T23:15:40;30.33;;;16.35;;
48789;SDS011;41718;51.980;5.734;2022-12-11T23:20:42;35.95;;;16.55;;
48789;SDS011;41718;51.980;5.734;2022-12-11T23:25:43;29.33;;;16.50;;
48789;SDS011;41718;51.980;5.734;2022-12-11T23:30:44;31.98;;;17.90;;
48789;SDS011;41718;51.980;5.734;2022-12-11T23:35:46;27.45;;;14.10;;
48789;SDS011;41718;51.980;5.734;2022-12-11T23:40:47;28.63;;;16.25;;
48789;SDS011;41718;51.980;5.734;2022-12-11T23:45:49;33.38;;;15.52;;
48789;SDS011;41718;51.980;5.734;2022-12-11T23:50:50;29.80;;;15.82;;
48789;SDS011;41718;51.980;5.734;2022-12-11T23:55:52;25.90;;;14.38;;
